createdAt,value
2023-01-17T00:02:07.519Z,86.64
2023-01-17T00:05:26.836Z,86.07
2023-01-17T00:08:50.721Z,85.56
2023-01-17T00:11:57.866Z,85.54
2023-01-17T00:15:05.152Z,84.92
2023-01-17T00:18:12.106Z,84.83
2023-01-17T00:21:30.497Z,84.27
2023-01-17T00:24:52.122Z,83.93
2023-01-17T00:27:55.287Z,83.13
2023-01-17T00:30:59.536Z,82.97
2023-01-17T00:34:02.653Z,83.48
2023-01-17T00:37:06.717Z,83.33
2023-01-17T00:40:13.330Z,83.16
2023-01-17T00:43:36.283Z,83.10
2023-01-17T00:46:54.745Z,82.66
2023-01-17T00:50:13.963Z,82.77
2023-01-17T00:53:33.586Z,83.17
2023-01-17T00:56:55.331Z,82.88
2023-01-17T01:00:13.983Z,82.05
2023-01-17T01:03:33.256Z,81.56
2023-01-17T01:06:51.835Z,80.28
2023-01-17T01:10:11.059Z,79.70
2023-01-17T01:13:32.160Z,80.18
2023-01-17T01:16:51.791Z,78.96
2023-01-17T01:20:10.256Z,79.04
2023-01-17T01:23:29.718Z,80.02
2023-01-17T01:26:48.079Z,80.71
2023-01-17T01:30:09.948Z,79.88
2023-01-17T01:33:21.236Z,80.43
2023-01-17T01:36:28.246Z,80.84
2023-01-17T01:39:34.446Z,80.78
2023-01-17T01:42:41.435Z,81.12
2023-01-17T01:45:59.452Z,80.95
2023-01-17T01:49:20.959Z,81.53
2023-01-17T01:52:33.915Z,81.33
2023-01-17T01:55:46.290Z,81.30
2023-01-17T01:58:56.148Z,80.94
2023-01-17T02:02:05.940Z,80.68
2023-01-17T02:05:15.594Z,80.58
2023-01-17T02:08:27.127Z,81.26
2023-01-17T02:11:34.976Z,80.74
2023-01-17T02:14:42.470Z,81.00
2023-01-17T02:18:07.988Z,80.70
2023-01-17T02:21:37.785Z,80.56
2023-01-17T02:25:26.643Z,80.83
2023-01-17T02:29:06.025Z,80.29
2023-01-17T02:32:27.421Z,80.03
2023-01-17T02:35:51.089Z,79.47
2023-01-17T02:39:10.014Z,79.13
2023-01-17T02:42:26.831Z,79.04
2023-01-17T02:45:33.009Z,79.78
2023-01-17T02:48:43.083Z,79.39
2023-01-17T02:52:25.867Z,79.87
2023-01-17T02:55:54.413Z,79.37
2023-01-17T02:59:22.542Z,79.29
2023-01-17T03:02:45.742Z,78.77
2023-01-17T03:06:11.813Z,79.44
2023-01-17T03:09:21.611Z,79.24
2023-01-17T03:12:31.926Z,79.72
2023-01-17T03:15:37.926Z,80.43
2023-01-17T03:18:45.013Z,81.14
2023-01-17T03:21:54.164Z,81.44
2023-01-17T03:25:01.103Z,81.45
2023-01-17T03:28:07.739Z,81.85
2023-01-17T03:31:18.395Z,82.07
2023-01-17T03:34:24.388Z,82.75
2023-01-17T03:37:33.929Z,82.91
2023-01-17T03:40:40.005Z,82.98
2023-01-17T03:43:46.919Z,83.26
2023-01-17T03:46:53.017Z,83.30
2023-01-17T03:49:59.870Z,83.13
2023-01-17T03:53:08.539Z,83.25
2023-01-17T03:56:15.737Z,83.19
2023-01-17T03:59:21.880Z,83.32
2023-01-17T04:02:28.917Z,83.94
2023-01-17T04:05:35.059Z,84.41
2023-01-17T04:08:44.679Z,84.44
2023-01-17T04:11:53.536Z,84.28
2023-01-17T04:15:00.425Z,84.10
2023-01-17T04:18:09.411Z,84.06
2023-01-17T04:21:16.307Z,83.71
2023-01-17T04:24:25.145Z,83.91
2023-01-17T04:27:31.927Z,83.16
2023-01-17T04:30:38.018Z,82.81
2023-01-17T04:33:44.919Z,82.61
2023-01-17T04:36:50.940Z,81.93
2023-01-17T04:40:00.481Z,80.97
2023-01-17T04:43:06.544Z,80.28
2023-01-17T04:46:13.480Z,79.71
2023-01-17T04:49:19.741Z,79.09
2023-01-17T04:52:26.680Z,78.97
2023-01-17T04:55:35.431Z,79.00
2023-01-17T04:58:42.477Z,78.67
2023-01-17T05:01:50.738Z,78.70
2023-01-17T05:04:57.614Z,78.34
2023-01-17T05:08:03.750Z,77.96
2023-01-17T05:11:13.236Z,78.59
2023-01-17T05:14:19.350Z,78.90
2023-01-17T05:17:27.073Z,78.18
2023-01-17T05:20:34.475Z,78.47
2023-01-17T05:23:42.911Z,77.78
2023-01-17T05:26:54.943Z,77.67
2023-01-17T05:30:01.941Z,78.32
2023-01-17T05:33:09.607Z,78.41
2023-01-17T05:36:16.524Z,78.57
2023-01-17T05:39:22.811Z,78.62
2023-01-17T05:42:32.378Z,78.43
2023-01-17T05:45:39.236Z,79.24
2023-01-17T05:48:46.186Z,79.42
2023-01-17T05:51:54.781Z,79.20
2023-01-17T05:55:01.856Z,79.61
2023-01-17T05:58:15.874Z,80.19
2023-01-17T06:01:22.924Z,79.61
2023-01-17T06:04:28.986Z,79.45
2023-01-17T06:07:37.033Z,78.88
2023-01-17T06:10:43.303Z,79.07
2023-01-17T06:13:54.386Z,78.38
2023-01-17T06:17:00.468Z,77.94
2023-01-17T06:20:09.574Z,77.88
2023-01-17T06:23:17.816Z,77.99
2023-01-17T06:26:24.711Z,77.67
2023-01-17T06:29:33.421Z,77.54
2023-01-17T06:32:40.282Z,77.50
2023-01-17T06:35:52.825Z,76.75
2023-01-17T06:38:59.698Z,77.05
2023-01-17T06:42:05.854Z,77.38
2023-01-17T06:45:15.516Z,77.43
2023-01-17T06:48:21.667Z,77.86
2023-01-17T06:51:28.847Z,78.07
2023-01-17T06:54:35.122Z,78.44
2023-01-17T06:57:42.051Z,78.79
2023-01-17T07:00:50.898Z,78.50
2023-01-17T07:03:58.426Z,78.21
2023-01-17T07:07:05.129Z,77.90
2023-01-17T07:10:13.814Z,77.80
2023-01-17T07:13:20.408Z,77.59
2023-01-17T07:16:30.286Z,77.80
2023-01-17T07:19:36.674Z,77.41
2023-01-17T07:22:48.021Z,77.16
2023-01-17T07:25:59.601Z,76.85
2023-01-17T07:29:06.742Z,77.25
2023-01-17T07:32:15.560Z,77.33
2023-01-17T07:35:23.201Z,77.94
2023-01-17T07:38:29.233Z,77.62
2023-01-17T07:41:41.540Z,77.21
2023-01-17T07:44:47.641Z,77.51
2023-01-17T07:48:00.403Z,77.58
2023-01-17T07:51:06.691Z,77.93
2023-01-17T07:54:15.352Z,77.46
2023-01-17T07:57:21.529Z,76.92
2023-01-17T08:00:29.503Z,77.06
2023-01-17T08:03:40.355Z,76.84
2023-01-17T08:06:50.991Z,76.65
2023-01-17T08:09:57.411Z,76.44
2023-01-17T08:13:04.507Z,76.42
2023-01-17T08:16:13.145Z,76.20
2023-01-17T08:19:23.001Z,76.73
2023-01-17T08:22:29.125Z,76.50
2023-01-17T08:25:36.113Z,76.04
2023-01-17T08:28:42.237Z,76.41
2023-01-17T08:31:49.348Z,76.06
2023-01-17T08:34:58.174Z,75.91
2023-01-17T08:38:05.383Z,75.60
2023-01-17T08:41:11.526Z,75.48
2023-01-17T08:44:20.248Z,75.25
2023-01-17T08:47:28.127Z,74.98
2023-01-17T08:50:37.907Z,74.40
2023-01-17T08:53:44.121Z,74.41
2023-01-17T08:56:53.128Z,74.40
2023-01-17T08:59:59.347Z,73.77
2023-01-17T09:03:11.294Z,73.74
2023-01-17T09:06:20.316Z,73.56
2023-01-17T09:09:27.414Z,73.31
2023-01-17T09:12:37.110Z,73.03
2023-01-17T09:15:44.630Z,73.12
2023-01-17T09:18:50.646Z,72.85
2023-01-17T09:22:00.266Z,72.82
2023-01-17T09:25:06.712Z,72.96
2023-01-17T09:28:14.033Z,72.54
2023-01-17T09:31:21.625Z,72.75
2023-01-17T09:34:28.716Z,72.48
2023-01-17T09:37:37.721Z,72.71
2023-01-17T09:40:50.990Z,72.21
2023-01-17T09:44:08.682Z,72.08
2023-01-17T09:47:34.516Z,71.93
2023-01-17T09:50:53.581Z,71.52
2023-01-17T09:54:03.304Z,70.74
2023-01-17T09:57:32.377Z,69.18
2023-01-17T10:01:04.860Z,68.69
2023-01-17T10:04:34.822Z,66.77
2023-01-17T10:08:03.780Z,63.79
2023-01-17T10:11:37.987Z,61.28
2023-01-17T10:15:29.329Z,59.21
2023-01-17T10:19:13.119Z,58.42
2023-01-17T10:22:52.409Z,60.01
2023-01-17T10:26:06.283Z,59.41
2023-01-17T10:29:22.354Z,58.63
2023-01-17T10:32:37.541Z,56.89
2023-01-17T10:35:58.122Z,56.43
2023-01-17T10:39:17.945Z,55.28
2023-01-17T10:42:34.586Z,53.63
2023-01-17T10:45:54.649Z,52.32
2023-01-17T10:49:02.568Z,52.08
2023-01-17T10:52:28.470Z,52.43
2023-01-17T10:55:48.615Z,51.18
2023-01-17T10:59:20.420Z,50.64
2023-01-17T11:02:40.148Z,51.44
2023-01-17T11:05:47.192Z,50.90
2023-01-17T11:08:57.549Z,52.05
2023-01-17T11:12:03.665Z,51.67
2023-01-17T11:15:26.126Z,50.09
2023-01-17T11:18:40.091Z,49.01
2023-01-17T11:21:58.759Z,48.02
2023-01-17T11:25:05.255Z,47.34
2023-01-17T11:28:30.745Z,47.15
2023-01-17T11:31:36.842Z,43.92
2023-01-17T11:34:46.343Z,45.54
2023-01-17T11:38:06.113Z,46.59
2023-01-17T11:41:23.047Z,46.92
2023-01-17T11:44:32.457Z,45.98
2023-01-17T11:47:39.384Z,46.54
2023-01-17T11:50:58.448Z,45.70
2023-01-17T11:54:24.905Z,46.30
2023-01-17T11:57:35.974Z,45.79
2023-01-17T12:01:00.290Z,45.22
2023-01-17T12:04:31.046Z,45.39
2023-01-17T12:07:54.523Z,43.69
2023-01-17T12:11:16.873Z,44.79
2023-01-17T12:14:40.293Z,45.72
2023-01-17T12:18:19.471Z,44.65
2023-01-17T12:21:48.806Z,43.62
2023-01-17T12:25:43.256Z,43.30
2023-01-17T12:29:39.817Z,44.17
2023-01-17T12:33:12.315Z,42.89
2023-01-17T12:36:41.941Z,43.32
2023-01-17T12:39:59.490Z,42.89
2023-01-17T12:43:22.791Z,42.41
2023-01-17T12:46:40.982Z,41.65
2023-01-17T12:49:59.796Z,42.00
2023-01-17T12:53:29.353Z,42.00
2023-01-17T12:56:44.912Z,43.11
2023-01-17T13:00:05.722Z,42.91
2023-01-17T13:03:27.802Z,43.57
2023-01-17T13:06:54.827Z,42.03
2023-01-17T13:10:32.111Z,42.29
2023-01-17T13:13:41.458Z,41.87
2023-01-17T13:17:00.926Z,41.38
2023-01-17T13:20:22.867Z,40.34
2023-01-17T13:23:43.672Z,40.93
2023-01-17T13:27:16.188Z,39.94
2023-01-17T13:30:43.847Z,40.56
2023-01-17T13:34:38.050Z,41.80
2023-01-17T13:38:45.209Z,44.51
2023-01-17T13:41:57.014Z,46.65
2023-01-17T13:45:17.058Z,48.70
2023-01-17T13:48:33.069Z,50.07
2023-01-17T13:52:14.050Z,50.81
2023-01-17T13:55:49.732Z,51.96
2023-01-17T13:59:05.286Z,53.36
2023-01-17T14:02:40.296Z,53.76
2023-01-17T14:05:58.927Z,53.79
2023-01-17T14:09:19.913Z,54.07
2023-01-17T14:12:44.578Z,54.57
2023-01-17T14:15:55.195Z,54.63
2023-01-17T14:19:02.226Z,54.58
2023-01-17T14:22:29.364Z,54.32
2023-01-17T14:25:45.437Z,54.74
2023-01-17T14:28:52.343Z,54.86
2023-01-17T14:32:07.853Z,55.34
2023-01-17T14:35:26.715Z,55.60
2023-01-17T14:38:37.201Z,56.03
2023-01-17T14:41:47.225Z,56.38
2023-01-17T14:45:03.293Z,56.21
2023-01-17T14:48:19.076Z,56.38
2023-01-17T14:51:26.896Z,57.03
2023-01-17T14:54:33.548Z,57.59
2023-01-17T14:57:43.164Z,58.09
2023-01-17T15:00:52.398Z,58.51
2023-01-17T15:04:01.064Z,59.07
2023-01-17T15:07:07.631Z,59.54
2023-01-17T15:10:20.697Z,60.03
2023-01-17T15:13:44.595Z,60.84
2023-01-17T15:16:53.445Z,60.64
2023-01-17T15:20:09.023Z,60.89
2023-01-17T15:23:22.697Z,61.22
2023-01-17T15:26:43.847Z,61.75
2023-01-17T15:29:57.698Z,62.15
2023-01-17T15:33:04.155Z,62.16
2023-01-17T15:36:24.790Z,61.77
2023-01-17T15:39:35.205Z,61.77
2023-01-17T15:42:49.594Z,62.22
2023-01-17T15:46:02.499Z,62.25
2023-01-17T15:49:20.162Z,62.97
2023-01-17T15:52:26.579Z,63.11
2023-01-17T15:55:37.082Z,63.58
2023-01-17T15:58:43.354Z,64.12
2023-01-17T16:02:00.238Z,64.41
2023-01-17T16:05:38.896Z,64.60
2023-01-17T16:08:55.841Z,64.35
2023-01-17T16:12:01.952Z,64.66
2023-01-17T16:15:13.374Z,64.69
2023-01-17T16:18:27.797Z,64.34
2023-01-17T16:21:35.749Z,64.67
2023-01-17T16:24:41.860Z,64.46
2023-01-17T16:27:49.553Z,64.12
2023-01-17T16:30:56.618Z,64.04
2023-01-17T16:34:06.291Z,63.82
2023-01-17T16:37:14.143Z,63.50
2023-01-17T16:40:22.323Z,63.59
2023-01-17T16:43:28.927Z,63.57
2023-01-17T16:46:38.756Z,64.02
2023-01-17T16:49:48.339Z,64.18
2023-01-17T16:52:57.763Z,64.31
2023-01-17T16:56:14.345Z,64.35
2023-01-17T16:59:21.622Z,64.00
2023-01-17T17:02:27.918Z,63.96
2023-01-17T17:05:38.438Z,63.66
2023-01-17T17:08:44.774Z,63.73
2023-01-17T17:11:51.827Z,63.82
2023-01-17T17:14:58.004Z,63.07
2023-01-17T17:18:05.865Z,63.78
2023-01-17T17:21:15.653Z,64.25
2023-01-17T17:24:22.891Z,63.73
2023-01-17T17:27:29.229Z,64.50
2023-01-17T17:30:36.610Z,64.61
2023-01-17T17:33:42.874Z,65.30
2023-01-17T17:36:52.630Z,64.93
2023-01-17T17:40:00.384Z,64.97
2023-01-17T17:43:07.401Z,65.72
2023-01-17T17:46:13.707Z,66.76
2023-01-17T17:49:22.006Z,67.55
2023-01-17T17:52:32.571Z,68.28
2023-01-17T17:55:41.206Z,69.00
2023-01-17T17:58:47.418Z,69.11
2023-01-17T18:01:54.984Z,69.26
2023-01-17T18:05:02.584Z,69.77
2023-01-17T18:08:13.369Z,69.87
2023-01-17T18:11:22.904Z,70.07
2023-01-17T18:14:29.977Z,69.92
2023-01-17T18:17:36.302Z,69.58
2023-01-17T18:20:43.352Z,68.56
2023-01-17T18:23:53.972Z,68.42
2023-01-17T18:27:01.417Z,67.82
2023-01-17T18:30:09.762Z,67.20
2023-01-17T18:33:16.902Z,66.27
2023-01-17T18:36:24.200Z,65.83
2023-01-17T18:39:34.367Z,65.73
2023-01-17T18:42:40.713Z,64.21
2023-01-17T18:45:55.193Z,64.33
2023-01-17T18:49:02.370Z,63.58
2023-01-17T18:52:09.706Z,62.65
2023-01-17T18:55:18.685Z,63.19
2023-01-17T18:58:27.664Z,64.16
2023-01-17T19:01:37.499Z,63.09
2023-01-17T19:04:44.605Z,63.45
2023-01-17T19:07:51.192Z,62.72
2023-01-17T19:11:01.183Z,63.12
2023-01-17T19:14:09.057Z,63.08
2023-01-17T19:17:16.023Z,63.03
2023-01-17T19:20:22.325Z,63.08
2023-01-17T19:23:29.411Z,62.34
2023-01-17T19:26:38.384Z,61.82
2023-01-17T19:29:45.424Z,62.23
2023-01-17T19:32:53.982Z,62.68
2023-01-17T19:36:05.977Z,62.64
2023-01-17T19:39:13.115Z,62.87
2023-01-17T19:42:22.989Z,63.04
2023-01-17T19:45:29.291Z,62.90
2023-01-17T19:48:37.275Z,63.40
2023-01-17T19:51:43.918Z,63.35
2023-01-17T19:54:51.053Z,63.28
2023-01-17T19:57:59.752Z,63.04
2023-01-17T20:01:16.238Z,62.65
2023-01-17T20:04:22.506Z,62.62
2023-01-17T20:07:30.016Z,62.66
2023-01-17T20:10:36.347Z,62.43
2023-01-17T20:13:46.756Z,62.22
2023-01-17T20:16:53.897Z,62.90
2023-01-17T20:20:01.020Z,64.31
2023-01-17T20:23:07.343Z,65.92
2023-01-17T20:26:15.805Z,66.67
2023-01-17T20:29:24.927Z,66.98
2023-01-17T20:32:31.986Z,66.28
2023-01-17T20:35:38.143Z,65.71
2023-01-17T20:38:48.420Z,65.60
2023-01-17T20:41:54.600Z,65.42
2023-01-17T20:45:04.556Z,64.97
2023-01-17T20:48:10.888Z,65.03
2023-01-17T20:51:19.844Z,64.66
2023-01-17T20:54:26.484Z,64.34
2023-01-17T20:57:34.518Z,64.33
2023-01-17T21:00:43.320Z,63.83
2023-01-17T21:03:54.178Z,64.23
2023-01-17T21:07:01.083Z,64.21
2023-01-17T21:10:09.677Z,64.34
2023-01-17T21:13:15.978Z,64.35
2023-01-17T21:16:28.264Z,64.72
2023-01-17T21:19:37.374Z,64.96
2023-01-17T21:22:45.207Z,65.22
2023-01-17T21:26:01.460Z,65.63
2023-01-17T21:29:08.498Z,65.88
2023-01-17T21:32:17.492Z,65.89
2023-01-17T21:35:24.501Z,65.89
2023-01-17T21:38:31.617Z,65.68
2023-01-17T21:41:42.638Z,66.00
2023-01-17T21:44:48.813Z,65.52
2023-01-17T21:48:00.719Z,65.84
2023-01-17T21:51:09.109Z,65.87
2023-01-17T21:54:16.300Z,65.63
2023-01-17T21:57:37.280Z,65.40
2023-01-17T22:00:46.252Z,65.17
2023-01-17T22:03:58.373Z,65.00
2023-01-17T22:07:05.293Z,64.89
2023-01-17T22:10:13.382Z,64.75
2023-01-17T22:13:22.038Z,65.12
2023-01-17T22:16:29.164Z,64.97
2023-01-17T22:19:38.606Z,65.68
2023-01-17T22:22:44.649Z,66.20
2023-01-17T22:25:51.845Z,65.60
2023-01-17T22:28:58.247Z,65.39
2023-01-17T22:32:05.161Z,65.58
2023-01-17T22:35:13.989Z,65.64
2023-01-17T22:38:20.843Z,65.97
2023-01-17T22:41:30.172Z,65.57
2023-01-17T22:44:37.019Z,65.70
2023-01-17T22:47:43.642Z,65.61
2023-01-17T22:50:53.208Z,65.66
2023-01-17T22:54:02.855Z,65.61
2023-01-17T22:57:09.775Z,65.95
2023-01-17T23:00:18.024Z,66.50
2023-01-17T23:03:24.904Z,66.39
2023-01-17T23:06:36.276Z,66.58
2023-01-17T23:09:43.228Z,66.56
2023-01-17T23:12:49.859Z,67.15
2023-01-17T23:16:09.147Z,67.88
2023-01-17T23:19:27.787Z,68.48
2023-01-17T23:22:37.921Z,69.02
2023-01-17T23:25:43.885Z,69.95
2023-01-17T23:28:48.189Z,69.82
2023-01-17T23:31:54.130Z,70.57
2023-01-17T23:35:01.036Z,70.71
2023-01-17T23:38:22.788Z,71.43
2023-01-17T23:41:42.113Z,71.63
2023-01-17T23:44:48.224Z,72.14
2023-01-17T23:47:55.536Z,72.70
2023-01-17T23:51:09.837Z,72.78
2023-01-17T23:54:19.498Z,73.47
2023-01-17T23:57:25.513Z,73.47
